Time;durP1;ratioP1;P1;durP2;ratioP2;P2;SDS_P1;SDS_P2;PMS_P1;PMS_P2;Temp;Humidity;BMP_temperature;BMP_pressure;BME280_temperature;BME280_humidity;BME280_pressure;Samples;Min_cycle;Max_cycle;Signal;HPM_P1;HPM_P2
2021/01/10 00:00:26;;;;;;;26.20;18.27;;;3.70;99.90;;;;;;5032502;28;20505;-76
2021/01/10 00:02:52;;;;;;;25.30;17.70;;;3.70;99.90;;;;;;5032108;28;20449;-76
2021/01/10 00:05:21;;;;;;;20.57;15.20;;;3.80;99.90;;;;;;5039499;28;20455;-76
2021/01/10 00:07:47;;;;;;;25.70;16.90;;;3.80;99.90;;;;;;5051578;28;20428;-76
2021/01/10 00:10:13;;;;;;;20.77;15.47;;;3.80;99.90;;;;;;5051671;28;20410;-76
2021/01/10 00:12:39;;;;;;;23.27;16.63;;;3.80;99.90;;;;;;5051632;28;20408;-75
2021/01/10 00:15:05;;;;;;;21.20;15.63;;;3.90;99.90;;;;;;5051645;28;20943;-75
2021/01/10 00:17:31;;;;;;;20.57;15.30;;;3.90;99.90;;;;;;5045223;28;20232;-76
2021/01/10 00:19:57;;;;;;;20.60;14.90;;;4.00;99.90;;;;;;5032064;28;20821;-76
2021/01/10 00:22:23;;;;;;;20.83;15.60;;;3.90;99.90;;;;;;5032032;28;20640;-76
2021/01/10 00:24:49;;;;;;;19.97;14.83;;;3.80;99.90;;;;;;5031903;28;20556;-76
2021/01/10 00:27:17;;;;;;;21.50;15.10;;;3.60;99.90;;;;;;5042612;28;20824;-76
2021/01/10 00:29:46;;;;;;;22.73;15.40;;;3.40;99.90;;;;;;5056225;28;20413;-77
2021/01/10 00:32:12;;;;;;;25.83;17.00;;;3.20;99.90;;;;;;5054325;28;20446;-76
2021/01/10 00:34:38;;;;;;;24.93;17.90;;;3.20;99.90;;;;;;5050835;28;20447;-76
2021/01/10 00:37:20;;;;;;;22.93;16.23;;;3.20;99.90;;;;;;5036149;28;20506;-76
2021/01/10 00:39:47;;;;;;;23.67;15.03;;;3.30;99.90;;;;;;5036128;28;20410;-76
2021/01/10 00:42:13;;;;;;;21.67;16.17;;;3.40;99.90;;;;;;5036312;28;20913;-76
2021/01/10 00:44:41;;;;;;;22.07;15.40;;;3.40;99.90;;;;;;5036081;28;20553;-76
2021/01/10 00:47:07;;;;;;;24.00;15.90;;;3.50;99.90;;;;;;5036142;28;20448;-76
2021/01/10 00:49:32;;;;;;;19.50;15.50;;;3.60;99.90;;;;;;5034715;28;20442;-76
2021/01/10 00:51:59;;;;;;;21.00;15.23;;;3.60;99.90;;;;;;5036407;28;20410;-76
2021/01/10 00:54:24;;;;;;;20.93;15.20;;;3.60;99.90;;;;;;5036100;28;20175;-75
2021/01/10 00:56:50;;;;;;;21.27;16.13;;;3.60;99.90;;;;;;5045570;28;20448;-75
2021/01/10 00:59:15;;;;;;;21.33;15.23;;;3.60;99.90;;;;;;5056220;28;20634;-75
2021/01/10 01:01:42;;;;;;;19.53;14.10;;;3.60;99.90;;;;;;5055773;28;20197;-76
2021/01/10 01:04:08;;;;;;;18.63;15.17;;;3.60;99.90;;;;;;5055295;28;20772;-75
2021/01/10 01:06:33;;;;;;;22.30;16.23;;;3.50;99.90;;;;;;5055695;28;20429;-75
2021/01/10 01:08:59;;;;;;;15.77;13.40;;;3.50;99.90;;;;;;5055371;28;20177;-76
2021/01/10 01:11:30;;;;;;;16.87;13.47;;;3.40;99.90;;;;;;5056420;28;20899;-76
2021/01/10 01:13:56;;;;;;;18.70;13.40;;;3.50;99.90;;;;;;5055550;28;20182;-76
2021/01/10 01:16:22;;;;;;;20.70;15.10;;;3.60;99.90;;;;;;5055787;28;20919;-75
2021/01/10 01:18:47;;;;;;;16.93;13.87;;;3.50;99.90;;;;;;5039335;28;20498;-75
2021/01/10 01:21:17;;;;;;;21.07;15.07;;;3.60;99.90;;;;;;5035356;28;20897;-76
2021/01/10 01:23:43;;;;;;;25.47;14.80;;;3.60;99.90;;;;;;5035550;28;20197;-75
2021/01/10 01:26:19;;;;;;;24.80;16.97;;;3.70;99.90;;;;;;5035199;28;20438;-75
2021/01/10 01:28:46;;;;;;;22.57;16.10;;;3.70;99.90;;;;;;5035680;28;20808;-77
2021/01/10 01:31:13;;;;;;;23.23;16.33;;;3.60;99.90;;;;;;5045764;28;20428;-76
2021/01/10 01:33:39;;;;;;;28.33;17.60;;;3.50;99.90;;;;;;5055764;28;20435;-75
2021/01/10 01:36:11;;;;;;;27.10;18.17;;;3.60;99.90;;;;;;5055428;28;20776;-75
2021/01/10 01:38:41;;;;;;;26.87;17.83;;;3.70;99.90;;;;;;5054790;28;20488;-76
2021/01/10 01:41:07;;;;;;;32.13;18.57;;;3.70;99.90;;;;;;5055840;28;20424;-76
2021/01/10 01:43:41;;;;;;;26.83;18.33;;;3.70;99.90;;;;;;5059054;28;20518;-76
2021/01/10 01:46:09;;;;;;;34.57;19.90;;;3.70;99.90;;;;;;5059976;28;20449;-76
2021/01/10 01:48:37;;;;;;;31.30;18.90;;;3.70;99.90;;;;;;5050410;28;20502;-76
2021/01/10 01:51:03;;;;;;;29.47;18.83;;;3.70;99.90;;;;;;5035360;28;20425;-76
2021/01/10 01:53:29;;;;;;;35.27;20.47;;;3.70;99.90;;;;;;5035817;28;20492;-75
2021/01/10 01:55:56;;;;;;;32.60;18.93;;;3.70;99.90;;;;;;5034866;28;20433;-76
2021/01/10 01:58:22;;;;;;;41.97;21.93;;;3.60;99.90;;;;;;5035545;28;20182;-75
2021/01/10 02:00:48;;;;;;;43.37;21.67;;;3.50;99.90;;;;;;5035406;28;20417;-75
2021/01/10 02:03:28;;;;;;;37.70;20.97;;;3.50;99.90;;;;;;5047458;28;20437;-75
2021/01/10 02:05:57;;;;;;;36.77;21.37;;;3.50;99.90;;;;;;5055077;28;20888;-75
2021/01/10 02:08:26;;;;;;;40.07;21.87;;;3.60;99.90;;;;;;5058937;28;20451;-76
2021/01/10 02:10:56;;;;;;;35.17;21.20;;;3.60;99.90;;;;;;5059198;28;20904;-75
2021/01/10 02:13:22;;;;;;;32.87;21.20;;;3.50;99.90;;;;;;5055043;28;20432;-75
2021/01/10 02:15:52;;;;;;;35.33;20.80;;;3.60;99.90;;;;;;5047712;28;20457;-76
2021/01/10 02:18:18;;;;;;;35.57;21.40;;;3.60;99.90;;;;;;5035106;28;20422;-76
2021/01/10 02:20:44;;;;;;;35.37;22.33;;;3.60;99.90;;;;;;5049156;28;20421;-76
2021/01/10 02:23:14;;;;;;;39.97;21.93;;;3.60;99.90;;;;;;5055310;28;20776;-76
2021/01/10 02:25:45;;;;;;;35.67;20.57;;;3.60;99.90;;;;;;5055541;28;20429;-77
2021/01/10 02:28:11;;;;;;;38.17;23.00;;;3.60;99.90;;;;;;5065629;28;20437;-77
2021/01/10 02:30:39;;;;;;;40.40;23.17;;;3.60;99.90;;;;;;5070502;28;20474;-77
2021/01/10 02:33:11;;;;;;;44.20;25.03;;;3.70;99.90;;;;;;5067674;28;20425;-77
2021/01/10 02:35:39;;;;;;;39.03;21.07;;;3.70;99.90;;;;;;5076857;28;20421;-76
2021/01/10 02:38:07;;;;;;;34.53;21.07;;;3.70;99.90;;;;;;5077227;28;20420;-77
2021/01/10 02:40:37;;;;;;;43.07;22.50;;;3.80;99.90;;;;;;5051490;28;20418;-76
2021/01/10 02:43:20;;;;;;;36.33;21.60;;;3.70;99.90;;;;;;5034613;28;20473;-76
2021/01/10 02:45:49;;;;;;;41.37;22.43;;;3.70;99.90;;;;;;5034795;28;20446;-76
2021/01/10 02:48:15;;;;;;;38.43;21.50;;;3.70;99.90;;;;;;5034244;28;20416;-76
2021/01/10 02:50:41;;;;;;;39.43;21.57;;;3.70;99.90;;;;;;5037939;28;20437;-76
2021/01/10 02:53:07;;;;;;;40.63;23.47;;;3.70;99.90;;;;;;5054276;28;20227;-76
2021/01/10 02:55:32;;;;;;;40.97;22.27;;;3.80;99.90;;;;;;5052367;28;20437;-76
2021/01/10 02:58:04;;;;;;;38.53;21.57;;;3.80;99.90;;;;;;5053746;28;20488;-76
2021/01/10 03:00:31;;;;;;;39.47;23.10;;;3.80;99.90;;;;;;5053986;28;20151;-76
2021/01/10 03:03:00;;;;;;;36.30;21.10;;;3.90;99.90;;;;;;5035666;28;20453;-75
2021/01/10 03:05:27;;;;;;;43.03;22.80;;;3.80;99.90;;;;;;5033692;28;20545;-75
2021/01/10 03:07:56;;;;;;;33.93;20.67;;;3.80;99.90;;;;;;5034007;28;20745;-75
2021/01/10 03:10:21;;;;;;;40.90;22.57;;;3.80;99.90;;;;;;5033897;28;20899;-75
2021/01/10 03:12:48;;;;;;;41.70;21.77;;;3.80;99.90;;;;;;5033868;28;20465;-75
2021/01/10 03:15:14;;;;;;;44.13;22.90;;;3.80;99.90;;;;;;5033645;28;20498;-75
2021/01/10 03:17:46;;;;;;;32.73;21.17;;;3.80;99.90;;;;;;5033771;28;20460;-75
2021/01/10 03:20:14;;;;;;;39.70;23.53;;;3.80;99.90;;;;;;5033938;28;20396;-75
2021/01/10 03:22:40;;;;;;;38.60;23.17;;;3.80;99.90;;;;;;5033779;28;20430;-73
2021/01/10 03:25:08;;;;;;;34.50;21.87;;;3.80;99.90;;;;;;5034275;28;20451;-75
2021/01/10 03:27:35;;;;;;;40.70;20.80;;;3.90;99.90;;;;;;5034122;28;20413;-75
2021/01/10 03:30:08;;;;;;;37.80;19.40;;;3.90;99.90;;;;;;5033433;28;20403;-75
2021/01/10 03:32:34;;;;;;;38.03;21.43;;;3.90;99.90;;;;;;5033764;28;20387;-75
2021/01/10 03:35:00;;;;;;;42.47;22.07;;;3.90;99.90;;;;;;5051592;28;20423;-75
2021/01/10 03:37:26;;;;;;;36.90;19.70;;;3.90;99.90;;;;;;5052223;28;20195;-75
2021/01/10 03:39:52;;;;;;;39.90;21.60;;;3.90;99.90;;;;;;5053302;28;20410;-75
2021/01/10 03:42:18;;;;;;;39.40;23.33;;;3.90;99.90;;;;;;5053105;28;20503;-75
2021/01/10 03:44:43;;;;;;;34.50;20.20;;;3.90;99.90;;;;;;5053117;28;20445;-76
2021/01/10 03:47:09;;;;;;;37.90;21.60;;;4.00;99.90;;;;;;5053441;28;20198;-76
2021/01/10 03:49:34;;;;;;;41.23;21.17;;;3.90;99.90;;;;;;5052992;28;20592;-76
2021/01/10 03:52:00;;;;;;;42.07;22.90;;;3.90;99.90;;;;;;5053657;28;20171;-75
2021/01/10 03:54:25;;;;;;;34.43;21.23;;;3.90;99.90;;;;;;5052969;28;20170;-76
2021/01/10 03:56:51;;;;;;;36.23;21.47;;;3.90;99.90;;;;;;5053123;28;20600;-76
2021/01/10 03:59:17;;;;;;;40.13;21.97;;;3.90;99.90;;;;;;5053312;28;20194;-76
2021/01/10 04:01:42;;;;;;;39.83;20.90;;;4.00;99.90;;;;;;5053886;28;20640;-76
2021/01/10 04:04:08;;;;;;;34.17;21.17;;;4.00;99.90;;;;;;5043837;28;20275;-76
2021/01/10 04:06:33;;;;;;;43.03;22.30;;;4.00;99.90;;;;;;5037160;28;20668;-76
2021/01/10 04:08:59;;;;;;;41.67;20.40;;;4.00;99.90;;;;;;5037853;28;20169;-76
2021/01/10 04:11:24;;;;;;;34.87;22.10;;;4.00;99.90;;;;;;5037288;28;20246;-76
2021/01/10 04:13:50;;;;;;;37.73;21.20;;;4.00;99.90;;;;;;5039079;28;20819;-76
2021/01/10 04:16:15;;;;;;;39.73;21.10;;;3.90;99.90;;;;;;5037333;28;20196;-76
2021/01/10 04:18:42;;;;;;;40.30;21.50;;;4.00;99.90;;;;;;5037147;28;20609;-76
2021/01/10 04:21:07;;;;;;;32.40;20.43;;;3.90;99.90;;;;;;5036565;28;20173;-76
2021/01/10 04:23:33;;;;;;;38.40;20.87;;;3.90;99.90;;;;;;5036563;28;20954;-76
2021/01/10 04:25:58;;;;;;;39.03;21.33;;;3.90;99.90;;;;;;5054311;28;20218;-76
2021/01/10 04:28:24;;;;;;;39.53;20.87;;;4.00;99.90;;;;;;5056704;28;20650;-76
2021/01/10 04:30:50;;;;;;;41.90;23.40;;;4.00;99.90;;;;;;5056521;28;20613;-76
2021/01/10 04:33:15;;;;;;;41.20;21.53;;;4.00;99.90;;;;;;5056477;28;20714;-76
2021/01/10 04:35:41;;;;;;;37.67;20.63;;;4.00;99.90;;;;;;5044406;28;20188;-75
2021/01/10 04:38:07;;;;;;;38.13;21.20;;;4.00;99.90;;;;;;5036764;28;20258;-75
2021/01/10 04:40:33;;;;;;;40.43;20.60;;;4.00;99.90;;;;;;5036397;28;20179;-76
2021/01/10 04:42:58;;;;;;;39.00;20.53;;;3.90;99.90;;;;;;5036512;28;20204;-76
2021/01/10 04:45:24;;;;;;;33.43;19.40;;;3.90;99.90;;;;;;5036297;28;20202;-76
2021/01/10 04:47:50;;;;;;;36.70;20.20;;;3.80;99.90;;;;;;5036251;28;20168;-76
2021/01/10 04:50:16;;;;;;;31.07;19.23;;;3.80;99.90;;;;;;5036247;28;20196;-76
2021/01/10 04:52:42;;;;;;;37.13;20.67;;;3.70;99.90;;;;;;5035923;28;20468;-76
2021/01/10 04:55:08;;;;;;;34.30;20.87;;;3.80;99.90;;;;;;5036230;28;20434;-76
2021/01/10 04:57:35;;;;;;;32.33;19.53;;;3.80;99.90;;;;;;5036766;28;20512;-76
2021/01/10 05:00:07;;;;;;;43.57;22.00;;;3.80;99.90;;;;;;5037425;28;20973;-76
2021/01/10 05:02:38;;;;;;;37.10;20.23;;;3.90;99.90;;;;;;5044695;28;20479;-76
2021/01/10 05:05:04;;;;;;;38.33;22.90;;;3.90;99.90;;;;;;5052342;28;20494;-76
2021/01/10 05:07:34;;;;;;;37.60;19.80;;;3.80;99.90;;;;;;5045987;28;20446;-76
2021/01/10 05:10:00;;;;;;;35.60;20.00;;;3.80;99.90;;;;;;5056297;28;20393;-76
2021/01/10 05:12:25;;;;;;;36.80;21.40;;;3.80;99.90;;;;;;5056265;28;20401;-76
2021/01/10 05:14:51;;;;;;;38.53;20.10;;;3.70;99.90;;;;;;5054870;28;20631;-76
2021/01/10 05:17:20;;;;;;;39.10;22.93;;;3.70;99.90;;;;;;5056640;28;20198;-76
2021/01/10 05:19:47;;;;;;;36.00;21.50;;;3.70;99.90;;;;;;5056106;28;20254;-75
2021/01/10 05:22:12;;;;;;;32.90;21.57;;;3.80;99.90;;;;;;5056383;28;20413;-75
2021/01/10 05:24:38;;;;;;;31.37;19.57;;;3.80;99.90;;;;;;5055703;28;20465;-76
2021/01/10 05:27:04;;;;;;;34.30;20.27;;;3.70;99.90;;;;;;5060824;28;20174;-76
2021/01/10 05:29:30;;;;;;;38.37;20.33;;;3.50;99.90;;;;;;5056535;28;20309;-75
2021/01/10 05:31:57;;;;;;;32.70;20.13;;;3.60;99.90;;;;;;5056169;28;20769;-75
2021/01/10 05:34:24;;;;;;;30.93;18.20;;;3.50;99.90;;;;;;5055137;28;20433;-75
2021/01/10 05:36:50;;;;;;;33.47;19.30;;;3.60;99.90;;;;;;5055195;28;20436;-75
2021/01/10 05:39:28;;;;;;;34.20;20.17;;;3.60;99.90;;;;;;5045391;28;20812;-75
2021/01/10 05:42:02;;;;;;;34.77;19.67;;;3.60;99.90;;;;;;5035202;28;20199;-75
2021/01/10 05:44:31;;;;;;;35.17;20.93;;;3.70;99.90;;;;;;5035456;28;20466;-75
2021/01/10 05:47:05;;;;;;;30.63;19.00;;;3.50;99.90;;;;;;5035001;28;20440;-76
2021/01/10 05:49:31;;;;;;;38.17;19.93;;;3.30;99.90;;;;;;5035180;28;20434;-75
2021/01/10 05:52:06;;;;;;;42.30;21.30;;;3.20;99.90;;;;;;5034989;28;20413;-75
2021/01/10 05:54:46;;;;;;;45.83;23.67;;;3.10;99.90;;;;;;5035327;28;20440;-75
2021/01/10 05:57:24;;;;;;;34.60;21.03;;;3.10;99.90;;;;;;5035269;28;20474;-75
2021/01/10 05:59:52;;;;;;;37.20;20.87;;;3.10;99.90;;;;;;5035283;28;20451;-75
2021/01/10 06:02:31;;;;;;;34.60;19.03;;;3.00;99.90;;;;;;5036072;28;20432;-76
2021/01/10 06:05:17;;;;;;;40.83;21.97;;;3.10;99.90;;;;;;5036162;28;20496;-75
2021/01/10 06:07:44;;;;;;;31.40;19.47;;;3.20;99.90;;;;;;5035444;28;20402;-75
2021/01/10 06:10:11;;;;;;;29.40;17.47;;;3.30;99.90;;;;;;5056895;28;20418;-76
2021/01/10 06:12:37;;;;;;;31.20;17.90;;;3.40;99.90;;;;;;5050387;28;20399;-75
2021/01/10 06:15:12;;;;;;;28.70;18.70;;;3.40;99.90;;;;;;5036438;28;20410;-75
2021/01/10 06:17:46;;;;;;;30.10;18.20;;;3.40;99.90;;;;;;5058436;28;20431;-75
2021/01/10 06:20:32;;;;;;;28.77;17.77;;;3.40;99.90;;;;;;5057566;28;20484;-76
2021/01/10 06:23:00;;;;;;;27.37;17.10;;;3.40;99.90;;;;;;5039044;28;20462;-75
2021/01/10 06:25:27;;;;;;;24.90;16.07;;;3.50;99.90;;;;;;5034425;28;20458;-75
2021/01/10 06:28:19;;;;;;;28.53;16.90;;;3.50;99.90;;;;;;5037685;28;20413;-75
2021/01/10 06:30:53;;;;;;;32.10;18.40;;;3.40;99.90;;;;;;5054920;28;20805;-75
2021/01/10 06:33:28;;;;;;;29.97;17.37;;;3.40;99.90;;;;;;5054526;28;20433;-76
2021/01/10 06:36:01;;;;;;;32.80;18.53;;;3.40;99.90;;;;;;5054249;28;20422;-76
2021/01/10 06:38:36;;;;;;;26.93;17.67;;;3.30;99.90;;;;;;5054810;28;20864;-77
2021/01/10 06:41:43;;;;;;;32.50;15.83;;;3.30;99.90;;;;;;5054591;28;20456;-76
2021/01/10 06:44:09;;;;;;;28.53;16.20;;;3.30;99.90;;;;;;4967069;28;20584;-76
2021/01/10 06:46:35;;;;;;;32.20;15.50;;;3.30;99.90;;;;;;5014685;28;20457;-76
2021/01/10 06:49:02;;;;;;;26.57;16.03;;;3.10;99.90;;;;;;5014781;28;20413;-76
2021/01/10 06:51:29;;;;;;;36.07;19.30;;;2.90;99.90;;;;;;5014335;28;20191;-76
2021/01/10 06:54:04;;;;;;;30.03;17.50;;;2.90;99.90;;;;;;5014377;28;20413;-76
2021/01/10 06:56:31;;;;;;;31.13;17.67;;;2.90;99.90;;;;;;5013870;28;20767;-76
2021/01/10 06:59:25;;;;;;;25.60;14.80;;;3.00;99.90;;;;;;5014798;28;20959;-76
2021/01/10 07:01:56;;;;;;;25.00;15.97;;;3.10;99.90;;;;;;5014556;28;20414;-76
2021/01/10 07:04:24;;;;;;;28.60;18.10;;;3.20;99.90;;;;;;5013337;28;20549;-76
2021/01/10 07:06:53;;;;;;;29.43;17.27;;;3.30;99.90;;;;;;5014236;28;20418;-76
2021/01/10 07:09:21;;;;;;;30.50;17.07;;;3.20;99.90;;;;;;5013254;28;20422;-76
2021/01/10 07:11:49;;;;;;;31.30;17.93;;;3.20;99.90;;;;;;5014310;28;20410;-76
2021/01/10 07:14:24;;;;;;;33.17;19.83;;;3.30;99.90;;;;;;5015025;28;20421;-76
2021/01/10 07:16:49;;;;;;;30.67;18.10;;;3.30;99.90;;;;;;5017602;28;20511;-76
2021/01/10 07:19:15;;;;;;;31.33;18.30;;;3.40;99.90;;;;;;5024455;28;20446;-76
2021/01/10 07:21:45;;;;;;;32.70;19.17;;;3.40;99.90;;;;;;5040196;28;20665;-76
2021/01/10 07:24:13;;;;;;;33.93;18.90;;;3.40;99.90;;;;;;5039253;28;20678;-76
2021/01/10 07:26:59;;;;;;;32.70;19.17;;;3.40;99.90;;;;;;5039848;28;20441;-76
2021/01/10 07:29:39;;;;;;;32.17;18.67;;;3.40;99.90;;;;;;5040991;28;20410;-76
2021/01/10 07:32:06;;;;;;;27.97;18.60;;;3.30;99.90;;;;;;5038208;28;20407;-76
2021/01/10 07:34:34;;;;;;;30.00;18.03;;;3.30;99.90;;;;;;5034940;28;20434;-76
2021/01/10 07:37:05;;;;;;;29.20;17.87;;;3.20;99.90;;;;;;5033616;28;20436;-76
2021/01/10 07:39:35;;;;;;;29.50;17.90;;;3.30;99.90;;;;;;5033417;28;20468;-76
2021/01/10 07:42:22;;;;;;;26.50;17.40;;;3.30;99.90;;;;;;5048947;28;20545;-76
2021/01/10 07:44:53;;;;;;;35.50;18.87;;;3.30;99.90;;;;;;5053335;28;20521;-76
2021/01/10 07:47:34;;;;;;;30.47;18.47;;;3.40;99.90;;;;;;5053684;28;20444;-76
2021/01/10 07:50:18;;;;;;;31.07;18.60;;;3.40;99.90;;;;;;5053292;28;20903;-76
2021/01/10 07:52:48;;;;;;;28.27;17.30;;;3.50;99.90;;;;;;5053520;28;20500;-76
2021/01/10 07:55:23;;;;;;;28.80;17.27;;;3.50;99.90;;;;;;5053017;28;20796;-76
2021/01/10 07:58:01;;;;;;;24.50;17.93;;;3.50;99.90;;;;;;5053485;28;20391;-75
2021/01/10 08:00:28;;;;;;;26.37;16.53;;;3.60;99.90;;;;;;5053267;28;20385;-75
2021/01/10 08:03:07;;;;;;;26.20;16.30;;;3.60;99.90;;;;;;5051536;28;20436;-75
2021/01/10 08:05:40;;;;;;;23.53;16.20;;;3.40;99.90;;;;;;5052969;28;20465;-75
2021/01/10 08:08:12;;;;;;;24.57;15.87;;;3.40;99.90;;;;;;5053727;28;20389;-75
2021/01/10 08:10:48;;;;;;;27.50;15.83;;;3.40;99.90;;;;;;5053565;28;20793;-75
2021/01/10 08:13:44;;;;;;;27.33;17.03;;;3.50;99.90;;;;;;5053648;28;20405;-75
2021/01/10 08:16:14;;;;;;;26.93;17.37;;;3.10;99.90;;;;;;5053456;28;20425;-75
2021/01/10 08:18:45;;;;;;;33.83;18.90;;;2.90;99.90;;;;;;5047374;28;20422;-75
2021/01/10 08:21:13;;;;;;;25.87;17.67;;;3.00;99.90;;;;;;5040947;28;20436;-76
2021/01/10 08:23:40;;;;;;;28.33;16.43;;;3.10;99.90;;;;;;5032957;28;20467;-75
2021/01/10 08:26:08;;;;;;;26.40;17.47;;;3.20;99.90;;;;;;5033142;28;20806;-75
2021/01/10 08:28:39;;;;;;;23.17;13.83;;;3.30;99.90;;;;;;5033726;28;20881;-75
2021/01/10 08:31:08;;;;;;;24.13;15.30;;;3.30;99.90;;;;;;5033665;28;20406;-75
2021/01/10 08:33:34;;;;;;;25.77;15.87;;;3.30;99.90;;;;;;5032999;28;20439;-76
2021/01/10 08:36:20;;;;;;;28.70;17.37;;;3.40;99.90;;;;;;5051842;28;20456;-75
2021/01/10 08:38:58;;;;;;;28.47;16.93;;;3.40;99.90;;;;;;5049863;28;20171;-75
2021/01/10 08:41:32;;;;;;;25.47;15.67;;;3.40;99.90;;;;;;5033611;28;20419;-76
2021/01/10 08:44:04;;;;;;;24.67;17.70;;;3.40;99.90;;;;;;5033338;28;20448;-75
2021/01/10 08:46:34;;;;;;;24.80;16.00;;;3.60;99.90;;;;;;5041548;28;21002;-75
2021/01/10 08:49:00;;;;;;;28.97;17.03;;;3.60;99.90;;;;;;5034469;28;20928;-75
2021/01/10 08:51:36;;;;;;;27.03;16.97;;;3.60;99.90;;;;;;5034717;28;20802;-76
2021/01/10 08:54:12;;;;;;;23.10;16.03;;;3.60;99.90;;;;;;5036188;28;20409;-76
2021/01/10 08:56:39;;;;;;;27.47;16.97;;;3.50;99.90;;;;;;5056152;28;20417;-75
2021/01/10 08:59:06;;;;;;;26.33;16.50;;;3.50;99.90;;;;;;5049614;28;20420;-76
2021/01/10 09:01:32;;;;;;;27.97;17.47;;;3.60;99.90;;;;;;5034532;28;20433;-75
2021/01/10 09:04:17;;;;;;;27.03;17.13;;;3.60;99.90;;;;;;5035798;28;20451;-76
2021/01/10 09:07:04;;;;;;;21.13;15.20;;;3.70;99.90;;;;;;5017722;28;20446;-76
2021/01/10 09:09:32;;;;;;;22.80;15.30;;;3.70;99.90;;;;;;5015048;28;20481;-76
2021/01/10 09:12:23;;;;;;;23.70;15.63;;;3.80;99.90;;;;;;5030442;28;20443;-76
2021/01/10 09:14:58;;;;;;;21.87;14.90;;;3.90;99.90;;;;;;5027219;28;20513;-76
2021/01/10 09:17:32;;;;;;;24.47;15.40;;;4.00;99.90;;;;;;5033379;28;20452;-76
2021/01/10 09:20:05;;;;;;;21.70;14.00;;;4.10;99.90;;;;;;5031721;28;20907;-76
2021/01/10 09:22:33;;;;;;;20.00;14.40;;;4.20;99.90;;;;;;5035112;28;20516;-76
2021/01/10 09:25:11;;;;;;;24.10;15.20;;;4.20;99.90;;;;;;5034293;28;20945;-76
2021/01/10 09:27:37;;;;;;;18.63;13.93;;;4.30;99.90;;;;;;5031774;28;20427;-74
2021/01/10 09:30:07;;;;;;;20.07;14.97;;;4.30;99.90;;;;;;5028231;28;20439;-74
2021/01/10 09:32:33;;;;;;;19.87;13.93;;;4.30;99.90;;;;;;5028083;28;20489;-74
2021/01/10 09:35:00;;;;;;;22.57;15.00;;;4.40;99.90;;;;;;5031817;28;20448;-73
2021/01/10 09:37:30;;;;;;;22.70;15.30;;;4.20;99.90;;;;;;5035132;28;20432;-73
2021/01/10 09:40:09;;;;;;;19.50;14.40;;;4.20;99.90;;;;;;5033721;28;20506;-73
2021/01/10 09:42:49;;;;;;;26.80;15.80;;;4.30;99.90;;;;;;5031561;28;20952;-74
2021/01/10 09:45:16;;;;;;;21.30;14.10;;;4.40;99.90;;;;;;5026492;28;20553;-73
2021/01/10 09:47:42;;;;;;;18.83;13.90;;;4.50;99.90;;;;;;5035661;28;20497;-73
2021/01/10 09:50:15;;;;;;;19.63;14.07;;;4.50;99.90;;;;;;5046878;28;20442;-73
2021/01/10 09:52:52;;;;;;;22.07;14.90;;;4.60;99.90;;;;;;5052955;28;20392;-73
2021/01/10 09:55:19;;;;;;;20.27;14.50;;;4.70;99.90;;;;;;5036568;28;20445;-73
2021/01/10 09:57:44;;;;;;;24.83;14.50;;;4.60;99.90;;;;;;5051975;28;20446;-73
2021/01/10 10:00:15;;;;;;;20.63;14.03;;;4.50;99.90;;;;;;5054900;28;20422;-73
2021/01/10 10:02:41;;;;;;;21.17;14.50;;;4.50;99.90;;;;;;5048484;28;20192;-73
2021/01/10 10:05:16;;;;;;;19.97;13.20;;;4.60;99.90;;;;;;5034938;28;20548;-73
2021/01/10 10:07:46;;;;;;;19.53;13.47;;;4.70;99.90;;;;;;5034388;28;20579;-73
2021/01/10 10:10:19;;;;;;;22.60;14.83;;;4.70;99.90;;;;;;5034614;28;20428;-73
2021/01/10 10:12:53;;;;;;;22.23;14.37;;;4.70;99.90;;;;;;5044884;28;20911;-73
2021/01/10 10:15:19;;;;;;;17.90;13.53;;;4.70;99.90;;;;;;5032812;28;20425;-73
2021/01/10 10:17:44;;;;;;;22.00;14.57;;;4.80;99.90;;;;;;5034572;28;20503;-73
2021/01/10 10:20:11;;;;;;;18.27;14.43;;;4.80;99.90;;;;;;5034581;28;20673;-73
2021/01/10 10:22:38;;;;;;;19.33;14.30;;;4.80;99.90;;;;;;5035685;28;20189;-73
2021/01/10 10:25:08;;;;;;;21.00;14.33;;;4.80;99.90;;;;;;5033819;28;20459;-73
2021/01/10 10:27:35;;;;;;;18.70;13.87;;;4.90;99.90;;;;;;5035258;28;20463;-73
2021/01/10 10:30:02;;;;;;;22.00;15.90;;;5.00;99.90;;;;;;5033298;28;20417;-73
2021/01/10 10:32:28;;;;;;;32.57;16.00;;;4.90;99.90;;;;;;5033637;28;20794;-72
2021/01/10 10:34:54;;;;;;;19.77;14.10;;;5.00;99.90;;;;;;5031613;28;20429;-73
2021/01/10 10:37:21;;;;;;;23.53;15.57;;;5.00;99.90;;;;;;5030599;28;20428;-73
2021/01/10 10:39:47;;;;;;;26.10;15.00;;;5.00;99.90;;;;;;5024756;28;20433;-73
2021/01/10 10:42:17;;;;;;;21.60;15.07;;;4.90;99.90;;;;;;5030965;28;20425;-73
2021/01/10 10:44:44;;;;;;;21.17;15.60;;;4.80;99.90;;;;;;5032725;28;20492;-74
2021/01/10 10:47:12;;;;;;;26.97;18.30;;;4.80;99.90;;;;;;5027275;28;20455;-73
2021/01/10 10:49:38;;;;;;;27.33;17.63;;;4.80;99.90;;;;;;5029199;28;20781;-73
2021/01/10 10:52:07;;;;;;;22.97;16.23;;;4.80;99.90;;;;;;5033695;28;20429;-72
2021/01/10 10:54:33;;;;;;;27.80;18.00;;;4.90;99.90;;;;;;5034032;28;20220;-73
2021/01/10 10:56:59;;;;;;;27.70;18.67;;;5.00;99.90;;;;;;5029155;28;20438;-74
2021/01/10 10:59:24;;;;;;;27.40;18.90;;;5.00;99.90;;;;;;5033487;28;20175;-72
2021/01/10 11:01:50;;;;;;;24.87;18.50;;;5.10;99.90;;;;;;5034311;28;20179;-72
2021/01/10 11:04:15;;;;;;;24.10;16.47;;;5.10;99.90;;;;;;5034195;28;20202;-72
2021/01/10 11:06:41;;;;;;;29.63;18.27;;;5.20;99.90;;;;;;5028604;28;20207;-73
2021/01/10 11:09:09;;;;;;;29.37;18.33;;;5.20;99.90;;;;;;5033166;28;20178;-73
2021/01/10 11:11:45;;;;;;;28.20;18.70;;;5.20;99.90;;;;;;5032908;28;20608;-72
2021/01/10 11:14:12;;;;;;;26.63;18.00;;;4.80;99.90;;;;;;5026640;28;20520;-73
2021/01/10 11:16:39;;;;;;;26.23;18.47;;;4.50;99.90;;;;;;5031606;28;20460;-72
2021/01/10 11:19:06;;;;;;;26.13;17.67;;;4.50;99.90;;;;;;5027274;28;20416;-73
2021/01/10 11:21:37;;;;;;;29.97;20.00;;;4.60;99.90;;;;;;5030153;28;20416;-73
2021/01/10 11:24:04;;;;;;;31.47;20.27;;;4.70;99.90;;;;;;5030461;28;20455;-73
2021/01/10 11:26:32;;;;;;;33.03;19.40;;;4.80;99.90;;;;;;5026757;28;20491;-73
2021/01/10 11:28:58;;;;;;;32.23;20.10;;;4.80;99.90;;;;;;5031094;28;20420;-74
2021/01/10 11:31:24;;;;;;;29.00;17.90;;;4.80;99.90;;;;;;5032551;28;20409;-73
2021/01/10 11:33:51;;;;;;;31.50;19.60;;;4.80;99.90;;;;;;5033207;28;20850;-74
2021/01/10 11:36:19;;;;;;;28.30;19.27;;;4.90;99.90;;;;;;5032738;28;20460;-73
2021/01/10 11:38:50;;;;;;;32.03;20.10;;;5.00;99.90;;;;;;5034672;28;20476;-74
2021/01/10 11:41:17;;;;;;;32.53;19.30;;;5.00;99.90;;;;;;5045009;28;20412;-73
2021/01/10 11:43:43;;;;;;;35.00;20.10;;;5.10;99.90;;;;;;5035810;28;21058;-74
2021/01/10 11:46:10;;;;;;;35.13;20.37;;;5.20;99.90;;;;;;5033080;28;20796;-74
2021/01/10 11:48:37;;;;;;;35.10;21.13;;;5.20;99.90;;;;;;5047022;28;20432;-72
2021/01/10 11:51:04;;;;;;;33.07;20.60;;;5.30;99.90;;;;;;5017267;28;20409;-73
2021/01/10 11:53:30;;;;;;;33.20;20.20;;;5.30;99.90;;;;;;5030822;28;20924;-74
2021/01/10 11:55:55;;;;;;;35.10;20.13;;;5.40;99.90;;;;;;5032380;28;20460;-74
2021/01/10 11:58:21;;;;;;;34.43;20.27;;;5.50;99.90;;;;;;5033668;28;20214;-73
2021/01/10 12:00:50;;;;;;;34.60;20.50;;;5.50;99.90;;;;;;5032947;28;20206;-72
2021/01/10 12:03:17;;;;;;;35.20;22.73;;;5.30;99.90;;;;;;5027434;28;20241;-72
2021/01/10 12:05:42;;;;;;;34.70;21.20;;;5.30;99.90;;;;;;5035339;28;20483;-72
2021/01/10 12:08:08;;;;;;;30.60;19.27;;;5.30;99.90;;;;;;5034696;28;20520;-72
2021/01/10 12:10:34;;;;;;;29.23;19.47;;;5.40;99.90;;;;;;5042388;28;20199;-74
2021/01/10 12:13:00;;;;;;;27.70;19.93;;;5.40;99.90;;;;;;5029532;28;20190;-74
2021/01/10 12:15:26;;;;;;;27.50;18.83;;;5.50;99.90;;;;;;5028493;28;20828;-73
2021/01/10 12:17:51;;;;;;;27.23;19.33;;;5.50;99.90;;;;;;5031223;28;20187;-75
2021/01/10 12:20:17;;;;;;;30.87;19.60;;;5.60;99.90;;;;;;5033799;28;20712;-74
2021/01/10 12:22:42;;;;;;;34.37;20.50;;;5.50;99.90;;;;;;5033579;28;20638;-73
2021/01/10 12:25:09;;;;;;;31.70;19.33;;;5.50;99.90;;;;;;5035589;28;20282;-72
2021/01/10 12:27:35;;;;;;;33.90;21.20;;;5.30;99.90;;;;;;5036751;28;20170;-73
2021/01/10 12:30:01;;;;;;;29.77;20.37;;;5.30;99.90;;;;;;5036179;28;20444;-73
2021/01/10 12:32:28;;;;;;;32.23;20.57;;;5.40;99.90;;;;;;5036355;28;20773;-73
2021/01/10 12:34:55;;;;;;;36.97;21.57;;;5.40;99.90;;;;;;5035866;28;20431;-73
2021/01/10 12:37:21;;;;;;;36.57;22.03;;;5.40;99.90;;;;;;5035773;28;20498;-73
2021/01/10 12:39:46;;;;;;;36.77;21.97;;;5.40;99.90;;;;;;5036432;28;20413;-73
2021/01/10 12:42:15;;;;;;;34.70;20.60;;;5.50;99.90;;;;;;5035106;28;20448;-72
2021/01/10 12:44:41;;;;;;;33.60;22.07;;;5.50;99.90;;;;;;5031951;28;20213;-73